sensor_id;sensor_type;location;lat;lon;timestamp;P1;durP1;ratioP1;P2;durP2;ratioP2
72115;SDS011;59991;52.140;5.428;2023-08-12T00:00:21;5.82;;;3.83;;
72115;SDS011;59991;52.140;5.428;2023-08-12T00:00:52;6.28;;;4.25;;
72115;SDS011;59991;52.140;5.428;2023-08-12T00:01:24;4.15;;;3.10;;
72115;SDS011;59991;52.140;5.428;2023-08-12T00:01:56;5.43;;;4.03;;
72115;SDS011;59991;52.140;5.428;2023-08-12T00:02:28;6.47;;;3.20;;
72115;SDS011;59991;52.140;5.428;2023-08-12T00:02:59;4.78;;;3.60;;
72115;SDS011;59991;52.140;5.428;2023-08-12T00:03:31;4.38;;;3.78;;
72115;SDS011;59991;52.140;5.428;2023-08-12T00:04:02;4.82;;;3.72;;
72115;SDS011;59991;52.140;5.428;2023-08-12T00:04:34;3.67;;;3.35;;
72115;SDS011;59991;52.140;5.428;2023-08-12T00:05:06;6.07;;;4.10;;
72115;SDS011;59991;52.140;5.428;2023-08-12T00:05:38;6.88;;;4.15;;
72115;SDS011;59991;52.140;5.428;2023-08-12T00:06:11;6.22;;;4.15;;
72115;SDS011;59991;52.140;5.428;2023-08-12T00:06:43;4.45;;;3.83;;
72115;SDS011;59991;52.140;5.428;2023-08-12T00:07:15;6.37;;;3.70;;
72115;SDS011;59991;52.140;5.428;2023-08-12T00:07:46;6.18;;;3.25;;
72115;SDS011;59991;52.140;5.428;2023-08-12T00:08:19;5.70;;;3.45;;
72115;SDS011;59991;52.140;5.428;2023-08-12T00:08:50;4.18;;;3.17;;
72115;SDS011;59991;52.140;5.428;2023-08-12T00:09:22;5.05;;;3.90;;
72115;SDS011;59991;52.140;5.428;2023-08-12T00:09:53;7.95;;;4.05;;
72115;SDS011;59991;52.140;5.428;2023-08-12T00:10:27;6.10;;;4.25;;
72115;SDS011;59991;52.140;5.428;2023-08-12T00:10:58;6.43;;;4.10;;
72115;SDS011;59991;52.140;5.428;2023-08-12T00:11:30;6.38;;;4.03;;
72115;SDS011;59991;52.140;5.428;2023-08-12T00:12:01;4.78;;;3.90;;
72115;SDS011;59991;52.140;5.428;2023-08-12T00:12:36;9.40;;;4.00;;
72115;SDS011;59991;52.140;5.428;2023-08-12T00:13:09;5.90;;;3.58;;
72115;SDS011;59991;52.140;5.428;2023-08-12T00:13:41;5.50;;;3.63;;
72115;SDS011;59991;52.140;5.428;2023-08-12T00:14:13;5.93;;;3.60;;
72115;SDS011;59991;52.140;5.428;2023-08-12T00:14:44;6.50;;;4.15;;
72115;SDS011;59991;52.140;5.428;2023-08-12T00:15:15;7.22;;;3.95;;
72115;SDS011;59991;52.140;5.428;2023-08-12T00:15:47;5.00;;;4.07;;
72115;SDS011;59991;52.140;5.428;2023-08-12T00:16:18;7.10;;;4.10;;
72115;SDS011;59991;52.140;5.428;2023-08-12T00:16:50;6.93;;;3.63;;
72115;SDS011;59991;52.140;5.428;2023-08-12T00:17:21;5.10;;;4.07;;
72115;SDS011;59991;52.140;5.428;2023-08-12T00:17:53;7.63;;;4.07;;
72115;SDS011;59991;52.140;5.428;2023-08-12T00:18:24;6.90;;;4.10;;
72115;SDS011;59991;52.140;5.428;2023-08-12T00:18:56;5.60;;;4.25;;
72115;SDS011;59991;52.140;5.428;2023-08-12T00:19:27;7.10;;;4.00;;
72115;SDS011;59991;52.140;5.428;2023-08-12T00:19:59;5.88;;;4.15;;
72115;SDS011;59991;52.140;5.428;2023-08-12T00:20:30;4.60;;;4.13;;
72115;SDS011;59991;52.140;5.428;2023-08-12T00:21:06;7.68;;;4.40;;
72115;SDS011;59991;52.140;5.428;2023-08-12T00:21:39;8.02;;;4.60;;
72115;SDS011;59991;52.140;5.428;2023-08-12T00:22:10;7.05;;;4.35;;
72115;SDS011;59991;52.140;5.428;2023-08-12T00:22:42;7.10;;;4.45;;
72115;SDS011;59991;52.140;5.428;2023-08-12T00:23:13;7.50;;;4.20;;
72115;SDS011;59991;52.140;5.428;2023-08-12T00:23:45;6.07;;;3.80;;
72115;SDS011;59991;52.140;5.428;2023-08-12T00:24:18;9.45;;;4.90;;
72115;SDS011;59991;52.140;5.428;2023-08-12T00:24:50;8.02;;;4.95;;
72115;SDS011;59991;52.140;5.428;2023-08-12T00:25:22;6.47;;;4.38;;
72115;SDS011;59991;52.140;5.428;2023-08-12T00:25:57;8.80;;;4.50;;
72115;SDS011;59991;52.140;5.428;2023-08-12T00:26:29;7.22;;;4.43;;
72115;SDS011;59991;52.140;5.428;2023-08-12T00:27:01;6.53;;;4.57;;
72115;SDS011;59991;52.140;5.428;2023-08-12T00:27:32;8.30;;;4.40;;
72115;SDS011;59991;52.140;5.428;2023-08-12T00:28:04;5.65;;;4.10;;
72115;SDS011;59991;52.140;5.428;2023-08-12T00:28:36;5.17;;;4.10;;
72115;SDS011;59991;52.140;5.428;2023-08-12T00:29:08;4.95;;;3.90;;
72115;SDS011;59991;52.140;5.428;2023-08-12T00:29:39;4.43;;;3.80;;
72115;SDS011;59991;52.140;5.428;2023-08-12T00:30:11;6.65;;;4.88;;
72115;SDS011;59991;52.140;5.428;2023-08-12T00:30:42;7.90;;;4.45;;
72115;SDS011;59991;52.140;5.428;2023-08-12T00:31:14;7.82;;;3.97;;
72115;SDS011;59991;52.140;5.428;2023-08-12T00:31:45;5.55;;;4.05;;
72115;SDS011;59991;52.140;5.428;2023-08-12T00:32:17;8.43;;;4.50;;
72115;SDS011;59991;52.140;5.428;2023-08-12T00:32:48;6.38;;;4.65;;
72115;SDS011;59991;52.140;5.428;2023-08-12T00:33:20;7.15;;;4.32;;
72115;SDS011;59991;52.140;5.428;2023-08-12T00:33:51;6.50;;;4.70;;
72115;SDS011;59991;52.140;5.428;2023-08-12T00:34:22;6.43;;;3.97;;
72115;SDS011;59991;52.140;5.428;2023-08-12T00:34:54;8.20;;;4.55;;
72115;SDS011;59991;52.140;5.428;2023-08-12T00:35:25;13.93;;;4.13;;
72115;SDS011;59991;52.140;5.428;2023-08-12T00:35:57;6.03;;;4.45;;
72115;SDS011;59991;52.140;5.428;2023-08-12T00:36:28;5.03;;;3.67;;
72115;SDS011;59991;52.140;5.428;2023-08-12T00:37:00;5.65;;;4.15;;
72115;SDS011;59991;52.140;5.428;2023-08-12T00:37:32;6.68;;;4.65;;
72115;SDS011;59991;52.140;5.428;2023-08-12T00:38:03;8.80;;;4.20;;
72115;SDS011;59991;52.140;5.428;2023-08-12T00:38:34;5.70;;;4.03;;
72115;SDS011;59991;52.140;5.428;2023-08-12T00:39:06;7.57;;;4.47;;
72115;SDS011;59991;52.140;5.428;2023-08-12T00:39:37;8.90;;;4.72;;
72115;SDS011;59991;52.140;5.428;2023-08-12T00:40:09;7.03;;;3.97;;
72115;SDS011;59991;52.140;5.428;2023-08-12T00:40:41;6.13;;;4.63;;
72115;SDS011;59991;52.140;5.428;2023-08-12T00:41:13;7.88;;;4.35;;
72115;SDS011;59991;52.140;5.428;2023-08-12T00:41:44;7.15;;;4.75;;
72115;SDS011;59991;52.140;5.428;2023-08-12T00:42:15;7.57;;;4.30;;
72115;SDS011;59991;52.140;5.428;2023-08-12T00:42:47;10.13;;;5.20;;
72115;SDS011;59991;52.140;5.428;2023-08-12T00:43:18;9.38;;;5.15;;
72115;SDS011;59991;52.140;5.428;2023-08-12T00:43:50;6.97;;;4.80;;
72115;SDS011;59991;52.140;5.428;2023-08-12T00:44:21;6.73;;;3.80;;
72115;SDS011;59991;52.140;5.428;2023-08-12T00:44:53;5.32;;;3.70;;
72115;SDS011;59991;52.140;5.428;2023-08-12T00:45:24;7.00;;;4.05;;
72115;SDS011;59991;52.140;5.428;2023-08-12T00:45:56;5.53;;;4.50;;
72115;SDS011;59991;52.140;5.428;2023-08-12T00:46:28;8.13;;;4.93;;
72115;SDS011;59991;52.140;5.428;2023-08-12T00:47:00;6.38;;;4.43;;
72115;SDS011;59991;52.140;5.428;2023-08-12T00:47:32;5.28;;;4.28;;
72115;SDS011;59991;52.140;5.428;2023-08-12T00:48:03;8.20;;;4.95;;
72115;SDS011;59991;52.140;5.428;2023-08-12T00:48:36;9.35;;;5.30;;
72115;SDS011;59991;52.140;5.428;2023-08-12T00:49:07;5.35;;;4.35;;
72115;SDS011;59991;52.140;5.428;2023-08-12T00:49:39;6.07;;;4.57;;
72115;SDS011;59991;52.140;5.428;2023-08-12T00:50:14;5.82;;;4.45;;
72115;SDS011;59991;52.140;5.428;2023-08-12T00:50:47;5.97;;;4.30;;
72115;SDS011;59991;52.140;5.428;2023-08-12T00:51:18;6.38;;;4.82;;
72115;SDS011;59991;52.140;5.428;2023-08-12T00:51:50;8.70;;;4.97;;
72115;SDS011;59991;52.140;5.428;2023-08-12T00:52:23;5.47;;;4.78;;
72115;SDS011;59991;52.140;5.428;2023-08-12T00:52:55;6.55;;;4.75;;
72115;SDS011;59991;52.140;5.428;2023-08-12T00:53:28;9.55;;;5.18;;
72115;SDS011;59991;52.140;5.428;2023-08-12T00:53:59;8.10;;;4.65;;
72115;SDS011;59991;52.140;5.428;2023-08-12T00:54:35;6.93;;;4.65;;
72115;SDS011;59991;52.140;5.428;2023-08-12T00:55:06;7.97;;;4.30;;
72115;SDS011;59991;52.140;5.428;2023-08-12T00:55:38;7.25;;;4.53;;
72115;SDS011;59991;52.140;5.428;2023-08-12T00:56:10;9.80;;;4.53;;
72115;SDS011;59991;52.140;5.428;2023-08-12T00:56:42;7.38;;;5.15;;
72115;SDS011;59991;52.140;5.428;2023-08-12T00:57:14;6.57;;;5.10;;
72115;SDS011;59991;52.140;5.428;2023-08-12T00:57:46;5.13;;;4.50;;
72115;SDS011;59991;52.140;5.428;2023-08-12T00:58:18;7.60;;;5.00;;
72115;SDS011;59991;52.140;5.428;2023-08-12T00:58:50;5.18;;;4.60;;
72115;SDS011;59991;52.140;5.428;2023-08-12T00:59:21;5.40;;;4.88;;
72115;SDS011;59991;52.140;5.428;2023-08-12T00:59:54;7.15;;;4.63;;
72115;SDS011;59991;52.140;5.428;2023-08-12T01:00:27;6.27;;;4.33;;
72115;SDS011;59991;52.140;5.428;2023-08-12T01:00:58;10.77;;;5.68;;
72115;SDS011;59991;52.140;5.428;2023-08-12T01:01:30;5.88;;;5.15;;
72115;SDS011;59991;52.140;5.428;2023-08-12T01:02:02;7.50;;;4.78;;
72115;SDS011;59991;52.140;5.428;2023-08-12T01:02:35;10.70;;;4.65;;
72115;SDS011;59991;52.140;5.428;2023-08-12T01:03:07;8.20;;;4.50;;
72115;SDS011;59991;52.140;5.428;2023-08-12T01:03:39;9.52;;;5.47;;
72115;SDS011;59991;52.140;5.428;2023-08-12T01:04:10;7.43;;;5.45;;
72115;SDS011;59991;52.140;5.428;2023-08-12T01:04:42;7.65;;;4.90;;
72115;SDS011;59991;52.140;5.428;2023-08-12T01:05:16;8.32;;;5.32;;
72115;SDS011;59991;52.140;5.428;2023-08-12T01:05:48;6.90;;;5.70;;
72115;SDS011;59991;52.140;5.428;2023-08-12T01:06:20;8.82;;;5.78;;
72115;SDS011;59991;52.140;5.428;2023-08-12T01:06:52;10.70;;;5.10;;
72115;SDS011;59991;52.140;5.428;2023-08-12T01:07:23;8.75;;;5.18;;
72115;SDS011;59991;52.140;5.428;2023-08-12T01:07:55;7.80;;;4.65;;
72115;SDS011;59991;52.140;5.428;2023-08-12T01:08:28;8.75;;;5.05;;
72115;SDS011;59991;52.140;5.428;2023-08-12T01:09:02;10.18;;;5.45;;
72115;SDS011;59991;52.140;5.428;2023-08-12T01:09:36;7.13;;;4.97;;
72115;SDS011;59991;52.140;5.428;2023-08-12T01:10:08;8.30;;;4.38;;
72115;SDS011;59991;52.140;5.428;2023-08-12T01:10:47;8.02;;;5.00;;
72115;SDS011;59991;52.140;5.428;2023-08-12T01:12:08;6.65;;;5.50;;
72115;SDS011;59991;52.140;5.428;2023-08-12T01:13:32;7.65;;;5.95;;
72115;SDS011;59991;52.140;5.428;2023-08-12T01:15:16;6.22;;;4.97;;
72115;SDS011;59991;52.140;5.428;2023-08-12T01:15:53;7.82;;;4.68;;
72115;SDS011;59991;52.140;5.428;2023-08-12T01:16:29;5.57;;;4.90;;
72115;SDS011;59991;52.140;5.428;2023-08-12T01:17:05;11.48;;;5.47;;
72115;SDS011;59991;52.140;5.428;2023-08-12T01:17:41;7.30;;;5.13;;
72115;SDS011;59991;52.140;5.428;2023-08-12T01:18:14;10.20;;;5.87;;
72115;SDS011;59991;52.140;5.428;2023-08-12T01:18:46;9.27;;;6.05;;
72115;SDS011;59991;52.140;5.428;2023-08-12T01:19:33;8.48;;;6.15;;
72115;SDS011;59991;52.140;5.428;2023-08-12T01:20:07;6.95;;;5.10;;
72115;SDS011;59991;52.140;5.428;2023-08-12T01:20:39;9.82;;;6.00;;
72115;SDS011;59991;52.140;5.428;2023-08-12T01:21:13;6.68;;;5.25;;
72115;SDS011;59991;52.140;5.428;2023-08-12T01:21:48;7.78;;;5.75;;
72115;SDS011;59991;52.140;5.428;2023-08-12T01:22:20;8.10;;;6.05;;
72115;SDS011;59991;52.140;5.428;2023-08-12T01:22:57;8.75;;;5.72;;
72115;SDS011;59991;52.140;5.428;2023-08-12T01:23:39;7.35;;;5.50;;
72115;SDS011;59991;52.140;5.428;2023-08-12T01:24:10;9.30;;;5.13;;
72115;SDS011;59991;52.140;5.428;2023-08-12T01:24:43;9.38;;;6.10;;
72115;SDS011;59991;52.140;5.428;2023-08-12T01:25:15;7.93;;;5.80;;
72115;SDS011;59991;52.140;5.428;2023-08-12T01:25:46;8.30;;;6.30;;
72115;SDS011;59991;52.140;5.428;2023-08-12T01:26:18;9.82;;;6.00;;
72115;SDS011;59991;52.140;5.428;2023-08-12T01:26:50;6.75;;;4.85;;
72115;SDS011;59991;52.140;5.428;2023-08-12T01:27:22;10.27;;;5.53;;
72115;SDS011;59991;52.140;5.428;2023-08-12T01:27:53;8.80;;;5.97;;
72115;SDS011;59991;52.140;5.428;2023-08-12T01:28:25;9.52;;;6.70;;
72115;SDS011;59991;52.140;5.428;2023-08-12T01:28:56;7.95;;;5.97;;
72115;SDS011;59991;52.140;5.428;2023-08-12T01:29:27;7.30;;;6.00;;
72115;SDS011;59991;52.140;5.428;2023-08-12T01:29:59;7.20;;;6.32;;
72115;SDS011;59991;52.140;5.428;2023-08-12T01:30:31;10.82;;;6.85;;
72115;SDS011;59991;52.140;5.428;2023-08-12T01:31:09;10.43;;;6.88;;
72115;SDS011;59991;52.140;5.428;2023-08-12T01:31:51;10.93;;;5.20;;
72115;SDS011;59991;52.140;5.428;2023-08-12T01:33:27;7.90;;;5.65;;
72115;SDS011;59991;52.140;5.428;2023-08-12T01:34:50;7.28;;;5.63;;
72115;SDS011;59991;52.140;5.428;2023-08-12T01:35:52;7.75;;;5.88;;
72115;SDS011;59991;52.140;5.428;2023-08-12T01:36:45;9.93;;;6.23;;
72115;SDS011;59991;52.140;5.428;2023-08-12T01:37:24;7.93;;;6.00;;
72115;SDS011;59991;52.140;5.428;2023-08-12T01:37:59;8.40;;;5.43;;
72115;SDS011;59991;52.140;5.428;2023-08-12T01:38:33;8.13;;;6.20;;
72115;SDS011;59991;52.140;5.428;2023-08-12T01:39:06;7.80;;;5.80;;
72115;SDS011;59991;52.140;5.428;2023-08-12T01:39:41;7.57;;;6.60;;
72115;SDS011;59991;52.140;5.428;2023-08-12T01:40:15;8.80;;;5.85;;
72115;SDS011;59991;52.140;5.428;2023-08-12T01:40:48;8.52;;;6.07;;
72115;SDS011;59991;52.140;5.428;2023-08-12T01:41:20;8.85;;;6.53;;
72115;SDS011;59991;52.140;5.428;2023-08-12T01:41:54;7.45;;;5.65;;
72115;SDS011;59991;52.140;5.428;2023-08-12T01:42:27;9.20;;;6.40;;
72115;SDS011;59991;52.140;5.428;2023-08-12T01:43:00;7.72;;;5.80;;
72115;SDS011;59991;52.140;5.428;2023-08-12T01:43:34;8.10;;;6.15;;
72115;SDS011;59991;52.140;5.428;2023-08-12T01:44:06;8.68;;;6.15;;
72115;SDS011;59991;52.140;5.428;2023-08-12T01:44:37;7.85;;;5.90;;
72115;SDS011;59991;52.140;5.428;2023-08-12T01:45:10;7.43;;;6.35;;
72115;SDS011;59991;52.140;5.428;2023-08-12T01:45:41;8.48;;;5.97;;
72115;SDS011;59991;52.140;5.428;2023-08-12T01:46:15;7.70;;;5.40;;
72115;SDS011;59991;52.140;5.428;2023-08-12T01:46:46;9.30;;;6.53;;
72115;SDS011;59991;52.140;5.428;2023-08-12T01:47:18;9.18;;;6.93;;
72115;SDS011;59991;52.140;5.428;2023-08-12T01:47:49;8.87;;;6.83;;
72115;SDS011;59991;52.140;5.428;2023-08-12T01:48:24;7.68;;;6.82;;
72115;SDS011;59991;52.140;5.428;2023-08-12T01:48:55;8.85;;;6.47;;
72115;SDS011;59991;52.140;5.428;2023-08-12T01:49:27;10.60;;;6.63;;
72115;SDS011;59991;52.140;5.428;2023-08-12T01:49:58;8.73;;;6.15;;
72115;SDS011;59991;52.140;5.428;2023-08-12T01:50:30;7.03;;;6.32;;
72115;SDS011;59991;52.140;5.428;2023-08-12T01:51:01;6.68;;;6.03;;
72115;SDS011;59991;52.140;5.428;2023-08-12T01:51:34;8.70;;;7.03;;
72115;SDS011;59991;52.140;5.428;2023-08-12T01:52:05;9.35;;;6.57;;
72115;SDS011;59991;52.140;5.428;2023-08-12T01:52:37;8.27;;;6.63;;
72115;SDS011;59991;52.140;5.428;2023-08-12T01:53:08;8.77;;;6.57;;
72115;SDS011;59991;52.140;5.428;2023-08-12T01:53:40;6.68;;;5.88;;
72115;SDS011;59991;52.140;5.428;2023-08-12T01:54:11;8.35;;;6.97;;
72115;SDS011;59991;52.140;5.428;2023-08-12T01:54:43;7.10;;;6.40;;
72115;SDS011;59991;52.140;5.428;2023-08-12T01:55:14;7.25;;;6.25;;
72115;SDS011;59991;52.140;5.428;2023-08-12T01:55:47;10.27;;;7.15;;
72115;SDS011;59991;52.140;5.428;2023-08-12T01:56:20;11.73;;;6.70;;
72115;SDS011;59991;52.140;5.428;2023-08-12T01:56:51;8.10;;;6.10;;
72115;SDS011;59991;52.140;5.428;2023-08-12T01:57:23;8.35;;;6.95;;
72115;SDS011;59991;52.140;5.428;2023-08-12T01:57:54;11.82;;;6.45;;
72115;SDS011;59991;52.140;5.428;2023-08-12T01:58:26;8.50;;;6.33;;
72115;SDS011;59991;52.140;5.428;2023-08-12T01:58:58;8.45;;;5.53;;
72115;SDS011;59991;52.140;5.428;2023-08-12T01:59:29;6.97;;;5.70;;
72115;SDS011;59991;52.140;5.428;2023-08-12T02:00:01;9.90;;;6.82;;
72115;SDS011;59991;52.140;5.428;2023-08-12T02:00:33;9.02;;;7.28;;
72115;SDS011;59991;52.140;5.428;2023-08-12T02:01:05;6.70;;;6.03;;
72115;SDS011;59991;52.140;5.428;2023-08-12T02:01:36;9.63;;;6.53;;
72115;SDS011;59991;52.140;5.428;2023-08-12T02:02:08;8.18;;;6.20;;
72115;SDS011;59991;52.140;5.428;2023-08-12T02:02:39;10.05;;;7.38;;
72115;SDS011;59991;52.140;5.428;2023-08-12T02:03:11;8.98;;;6.60;;
72115;SDS011;59991;52.140;5.428;2023-08-12T02:03:42;8.23;;;5.80;;
72115;SDS011;59991;52.140;5.428;2023-08-12T02:04:14;8.80;;;6.88;;
72115;SDS011;59991;52.140;5.428;2023-08-12T02:04:45;9.05;;;7.25;;
72115;SDS011;59991;52.140;5.428;2023-08-12T02:05:17;10.88;;;6.38;;
72115;SDS011;59991;52.140;5.428;2023-08-12T02:05:49;9.20;;;6.00;;
72115;SDS011;59991;52.140;5.428;2023-08-12T02:06:20;7.53;;;6.72;;
72115;SDS011;59991;52.140;5.428;2023-08-12T02:06:52;8.52;;;6.03;;
72115;SDS011;59991;52.140;5.428;2023-08-12T02:07:23;7.32;;;6.63;;
72115;SDS011;59991;52.140;5.428;2023-08-12T02:07:55;7.97;;;6.45;;
72115;SDS011;59991;52.140;5.428;2023-08-12T02:08:26;12.75;;;6.68;;
72115;SDS011;59991;52.140;5.428;2023-08-12T02:08:58;11.70;;;6.33;;
72115;SDS011;59991;52.140;5.428;2023-08-12T02:09:29;8.73;;;6.50;;
72115;SDS011;59991;52.140;5.428;2023-08-12T02:10:01;9.93;;;7.28;;
72115;SDS011;59991;52.140;5.428;2023-08-12T02:10:33;9.75;;;7.18;;
72115;SDS011;59991;52.140;5.428;2023-08-12T02:11:05;13.63;;;6.75;;
72115;SDS011;59991;52.140;5.428;2023-08-12T02:11:36;14.90;;;7.95;;
72115;SDS011;59991;52.140;5.428;2023-08-12T02:12:07;9.65;;;6.53;;
72115;SDS011;59991;52.140;5.428;2023-08-12T02:12:39;7.18;;;6.18;;
72115;SDS011;59991;52.140;5.428;2023-08-12T02:14:01;9.05;;;6.25;;
72115;SDS011;59991;52.140;5.428;2023-08-12T02:14:32;10.97;;;6.93;;
72115;SDS011;59991;52.140;5.428;2023-08-12T02:15:04;10.50;;;6.57;;
72115;SDS011;59991;52.140;5.428;2023-08-12T02:15:36;9.48;;;6.28;;
72115;SDS011;59991;52.140;5.428;2023-08-12T02:16:07;8.55;;;6.43;;
72115;SDS011;59991;52.140;5.428;2023-08-12T02:16:39;9.32;;;6.82;;
72115;SDS011;59991;52.140;5.428;2023-08-12T02:17:11;14.25;;;7.40;;
72115;SDS011;59991;52.140;5.428;2023-08-12T02:17:43;9.10;;;6.28;;
72115;SDS011;59991;52.140;5.428;2023-08-12T02:18:14;10.35;;;6.63;;
72115;SDS011;59991;52.140;5.428;2023-08-12T02:18:45;10.43;;;7.00;;
72115;SDS011;59991;52.140;5.428;2023-08-12T02:19:17;11.35;;;6.93;;
72115;SDS011;59991;52.140;5.428;2023-08-12T02:19:48;8.67;;;6.33;;
72115;SDS011;59991;52.140;5.428;2023-08-12T02:20:20;12.90;;;7.82;;
72115;SDS011;59991;52.140;5.428;2023-08-12T02:20:51;11.60;;;7.65;;
72115;SDS011;59991;52.140;5.428;2023-08-12T02:21:23;10.77;;;7.72;;
72115;SDS011;59991;52.140;5.428;2023-08-12T02:21:54;9.13;;;7.10;;
72115;SDS011;59991;52.140;5.428;2023-08-12T02:22:26;11.93;;;7.10;;
72115;SDS011;59991;52.140;5.428;2023-08-12T02:22:57;8.75;;;7.20;;
72115;SDS011;59991;52.140;5.428;2023-08-12T02:23:29;9.57;;;8.05;;
72115;SDS011;59991;52.140;5.428;2023-08-12T02:24:00;12.77;;;8.95;;
72115;SDS011;59991;52.140;5.428;2023-08-12T02:24:32;10.93;;;7.03;;
72115;SDS011;59991;52.140;5.428;2023-08-12T02:25:03;9.57;;;8.03;;
72115;SDS011;59991;52.140;5.428;2023-08-12T02:25:54;7.82;;;7.03;;
72115;SDS011;59991;52.140;5.428;2023-08-12T02:26:25;8.57;;;7.03;;
72115;SDS011;59991;52.140;5.428;2023-08-12T02:26:57;13.63;;;7.57;;
72115;SDS011;59991;52.140;5.428;2023-08-12T02:27:28;9.70;;;7.22;;
72115;SDS011;59991;52.140;5.428;2023-08-12T02:28:00;9.63;;;6.88;;
72115;SDS011;59991;52.140;5.428;2023-08-12T02:28:31;12.70;;;8.27;;
72115;SDS011;59991;52.140;5.428;2023-08-12T02:29:03;12.38;;;7.97;;
72115;SDS011;59991;52.140;5.428;2023-08-12T02:29:35;9.80;;;8.10;;
72115;SDS011;59991;52.140;5.428;2023-08-12T02:30:06;9.43;;;6.90;;
72115;SDS011;59991;52.140;5.428;2023-08-12T02:30:38;11.20;;;7.47;;
72115;SDS011;59991;52.140;5.428;2023-08-12T02:31:10;10.48;;;7.07;;
72115;SDS011;59991;52.140;5.428;2023-08-12T02:31:41;10.57;;;7.95;;
72115;SDS011;59991;52.140;5.428;2023-08-12T02:32:13;9.40;;;7.68;;
72115;SDS011;59991;52.140;5.428;2023-08-12T02:32:44;8.98;;;7.55;;
72115;SDS011;59991;52.140;5.428;2023-08-12T02:33:17;12.20;;;7.18;;
72115;SDS011;59991;52.140;5.428;2023-08-12T02:33:48;10.82;;;7.50;;
72115;SDS011;59991;52.140;5.428;2023-08-12T02:34:23;10.52;;;7.88;;
72115;SDS011;59991;52.140;5.428;2023-08-12T02:34:54;8.68;;;7.07;;
72115;SDS011;59991;52.140;5.428;2023-08-12T02:35:26;9.88;;;7.15;;
72115;SDS011;59991;52.140;5.428;2023-08-12T02:35:57;9.37;;;7.07;;
72115;SDS011;59991;52.140;5.428;2023-08-12T02:36:29;11.90;;;7.47;;
72115;SDS011;59991;52.140;5.428;2023-08-12T02:37:00;14.40;;;8.05;;
72115;SDS011;59991;52.140;5.428;2023-08-12T02:37:32;8.38;;;6.57;;
72115;SDS011;59991;52.140;5.428;2023-08-12T02:38:03;9.20;;;7.22;;
72115;SDS011;59991;52.140;5.428;2023-08-12T02:38:35;10.10;;;6.75;;
72115;SDS011;59991;52.140;5.428;2023-08-12T02:39:06;11.73;;;7.40;;
72115;SDS011;59991;52.140;5.428;2023-08-12T02:39:37;10.93;;;8.48;;
72115;SDS011;59991;52.140;5.428;2023-08-12T02:40:09;10.57;;;7.47;;
72115;SDS011;59991;52.140;5.428;2023-08-12T02:40:41;10.60;;;7.35;;
72115;SDS011;59991;52.140;5.428;2023-08-12T02:41:13;14.93;;;8.30;;
72115;SDS011;59991;52.140;5.428;2023-08-12T02:41:44;11.60;;;8.57;;
72115;SDS011;59991;52.140;5.428;2023-08-12T02:42:16;11.20;;;8.13;;
72115;SDS011;59991;52.140;5.428;2023-08-12T02:42:48;10.23;;;8.32;;
72115;SDS011;59991;52.140;5.428;2023-08-12T02:43:19;11.95;;;7.78;;
72115;SDS011;59991;52.140;5.428;2023-08-12T02:43:51;13.82;;;8.55;;
72115;SDS011;59991;52.140;5.428;2023-08-12T02:44:22;12.65;;;8.48;;
72115;SDS011;59991;52.140;5.428;2023-08-12T02:44:54;10.43;;;7.25;;
72115;SDS011;59991;52.140;5.428;2023-08-12T02:45:26;11.15;;;7.32;;
72115;SDS011;59991;52.140;5.428;2023-08-12T02:45:58;15.18;;;8.60;;
72115;SDS011;59991;52.140;5.428;2023-08-12T02:46:29;13.80;;;8.37;;
72115;SDS011;59991;52.140;5.428;2023-08-12T02:47:01;14.45;;;9.25;;
72115;SDS011;59991;52.140;5.428;2023-08-12T02:47:32;11.23;;;8.23;;
72115;SDS011;59991;52.140;5.428;2023-08-12T02:48:04;11.57;;;8.70;;
72115;SDS011;59991;52.140;5.428;2023-08-12T02:48:36;15.27;;;8.73;;
72115;SDS011;59991;52.140;5.428;2023-08-12T02:49:07;11.88;;;9.25;;
72115;SDS011;59991;52.140;5.428;2023-08-12T02:49:39;14.68;;;8.10;;
72115;SDS011;59991;52.140;5.428;2023-08-12T02:50:10;11.65;;;8.73;;
72115;SDS011;59991;52.140;5.428;2023-08-12T02:50:42;12.57;;;8.75;;
72115;SDS011;59991;52.140;5.428;2023-08-12T02:51:13;10.23;;;7.28;;
72115;SDS011;59991;52.140;5.428;2023-08-12T02:51:45;9.33;;;7.77;;
72115;SDS011;59991;52.140;5.428;2023-08-12T02:52:16;9.77;;;8.15;;
72115;SDS011;59991;52.140;5.428;2023-08-12T02:52:48;11.50;;;8.55;;
72115;SDS011;59991;52.140;5.428;2023-08-12T02:53:19;10.02;;;8.27;;
72115;SDS011;59991;52.140;5.428;2023-08-12T02:53:51;13.73;;;8.35;;
72115;SDS011;59991;52.140;5.428;2023-08-12T02:54:22;11.20;;;8.20;;
72115;SDS011;59991;52.140;5.428;2023-08-12T02:54:54;11.05;;;8.10;;
72115;SDS011;59991;52.140;5.428;2023-08-12T02:55:27;11.88;;;8.38;;
72115;SDS011;59991;52.140;5.428;2023-08-12T02:55:59;10.05;;;7.57;;
72115;SDS011;59991;52.140;5.428;2023-08-12T02:56:30;13.43;;;8.30;;
72115;SDS011;59991;52.140;5.428;2023-08-12T02:57:02;13.60;;;8.97;;
72115;SDS011;59991;52.140;5.428;2023-08-12T02:57:33;22.30;;;10.00;;
72115;SDS011;59991;52.140;5.428;2023-08-12T02:58:05;13.63;;;8.23;;
72115;SDS011;59991;52.140;5.428;2023-08-12T02:58:36;12.52;;;8.95;;
72115;SDS011;59991;52.140;5.428;2023-08-12T02:59:08;11.13;;;8.57;;
72115;SDS011;59991;52.140;5.428;2023-08-12T02:59:40;12.15;;;8.52;;
72115;SDS011;59991;52.140;5.428;2023-08-12T03:00:12;15.00;;;10.05;;
72115;SDS011;59991;52.140;5.428;2023-08-12T03:00:43;11.73;;;8.65;;
72115;SDS011;59991;52.140;5.428;2023-08-12T03:01:15;16.48;;;9.75;;
72115;SDS011;59991;52.140;5.428;2023-08-12T03:01:47;10.00;;;8.88;;
72115;SDS011;59991;52.140;5.428;2023-08-12T03:02:18;11.90;;;8.93;;
72115;SDS011;59991;52.140;5.428;2023-08-12T03:02:50;13.63;;;9.23;;
72115;SDS011;59991;52.140;5.428;2023-08-12T03:03:21;11.63;;;8.98;;
72115;SDS011;59991;52.140;5.428;2023-08-12T03:03:53;13.82;;;9.25;;
72115;SDS011;59991;52.140;5.428;2023-08-12T03:04:24;10.85;;;8.57;;
72115;SDS011;59991;52.140;5.428;2023-08-12T03:04:56;15.15;;;9.40;;
72115;SDS011;59991;52.140;5.428;2023-08-12T03:05:27;13.30;;;8.60;;
72115;SDS011;59991;52.140;5.428;2023-08-12T03:05:59;13.05;;;8.82;;
72115;SDS011;59991;52.140;5.428;2023-08-12T03:06:30;12.30;;;7.85;;
72115;SDS011;59991;52.140;5.428;2023-08-12T03:07:02;15.43;;;9.25;;
72115;SDS011;59991;52.140;5.428;2023-08-12T03:08:24;13.90;;;9.05;;
72115;SDS011;59991;52.140;5.428;2023-08-12T03:08:55;10.55;;;8.13;;
72115;SDS011;59991;52.140;5.428;2023-08-12T03:09:27;12.32;;;9.98;;
72115;SDS011;59991;52.140;5.428;2023-08-12T03:09:58;15.05;;;9.73;;
72115;SDS011;59991;52.140;5.428;2023-08-12T03:10:30;13.70;;;9.57;;
72115;SDS011;59991;52.140;5.428;2023-08-12T03:11:02;12.88;;;9.65;;
72115;SDS011;59991;52.140;5.428;2023-08-12T03:11:33;14.63;;;9.90;;
72115;SDS011;59991;52.140;5.428;2023-08-12T03:12:05;16.73;;;9.27;;
72115;SDS011;59991;52.140;5.428;2023-08-12T03:12:37;16.05;;;9.50;;
72115;SDS011;59991;52.140;5.428;2023-08-12T03:13:08;15.40;;;9.30;;
72115;SDS011;59991;52.140;5.428;2023-08-12T03:13:40;13.23;;;8.68;;
72115;SDS011;59991;52.140;5.428;2023-08-12T03:14:11;10.82;;;9.32;;
72115;SDS011;59991;52.140;5.428;2023-08-12T03:14:43;15.60;;;9.98;;
72115;SDS011;59991;52.140;5.428;2023-08-12T03:15:14;15.25;;;10.00;;
72115;SDS011;59991;52.140;5.428;2023-08-12T03:15:46;14.50;;;8.82;;
72115;SDS011;59991;52.140;5.428;2023-08-12T03:16:19;13.98;;;10.30;;
72115;SDS011;59991;52.140;5.428;2023-08-12T03:16:50;11.43;;;9.50;;
72115;SDS011;59991;52.140;5.428;2023-08-12T03:17:22;12.50;;;10.20;;
72115;SDS011;59991;52.140;5.428;2023-08-12T03:17:53;14.57;;;8.60;;
72115;SDS011;59991;52.140;5.428;2023-08-12T03:18:25;11.10;;;8.73;;
72115;SDS011;59991;52.140;5.428;2023-08-12T03:18:56;12.30;;;9.38;;
72115;SDS011;59991;52.140;5.428;2023-08-12T03:19:28;12.18;;;9.25;;
72115;SDS011;59991;52.140;5.428;2023-08-12T03:19:59;14.57;;;9.57;;